.
WxDataArchive / Data Records for 2012-02-20
2012-02-19 February 2012 2012-02-21

Data Records for Monday, 20 February 2012

Time	Temp	Chill	HIndex	Humid	Dewpt	 Wind 	HiWind	WindDir	Rain 	Barom 
-----	----	-----	------	-----	-----	------	------	-------	-----	----- 
00:00	22.9	22.9	22.9	81	18.0	0	0	---	0.00	30.230 
00:05	22.9	22.9	22.9	81	18.0	0	0	---	0.00	30.230 
00:10	23.0	23.0	23.0	81	18.1	0	0	---	0.00	30.230 
00:15	22.9	22.9	22.9	81	18.0	0	0	---	0.00	30.237 
00:20	22.9	22.9	22.9	81	18.0	0	0	---	0.00	30.237 
00:25	22.7	22.7	22.7	80	17.5	0	0	---	0.00	30.237 
00:30	22.5	22.5	22.5	80	17.3	0	0	---	0.00	30.238 
00:35	22.4	22.4	22.4	80	17.2	0	0	---	0.00	30.238 
00:40	22.2	22.2	22.2	80	17.0	0	0	---	0.00	30.238 
00:45	22.1	22.1	22.1	80	16.9	0	0	---	0.00	30.254 
00:50	21.9	21.9	21.9	80	16.7	0	0	---	0.00	30.254 
00:55	21.9	21.9	21.9	80	16.7	0	0	---	0.00	30.254 
01:00	21.8	21.8	21.8	80	16.6	0	0	---	0.00	30.258 
01:05	21.4	21.4	21.4	80	16.2	0	0	---	0.00	30.258 
01:10	21.3	21.3	21.3	80	16.1	0	0	---	0.00	30.258 
01:15	21.1	21.1	21.1	80	15.9	0	0	---	0.00	30.256 
01:20	20.8	20.8	20.8	81	15.9	0	0	---	0.00	30.256 
01:25	20.6	20.6	20.6	81	15.7	0	0	---	0.00	30.256 
01:30	20.3	20.3	20.3	81	15.4	0	0	---	0.00	30.255 
01:35	20.2	20.2	20.2	81	15.3	0	0	---	0.00	30.255 
01:40	20.0	20.0	20.0	81	15.1	0	0	---	0.00	30.255 
01:45	19.9	19.9	19.9	82	15.3	0	0	---	0.00	30.249 
01:50	19.9	19.9	19.9	82	15.3	0	0	---	0.00	30.249 
01:55	19.9	19.9	19.9	83	15.6	0	0	---	0.00	30.249 
02:00	19.7	19.7	19.7	83	15.4	0	0	---	0.00	30.249 
02:05	19.7	19.7	19.7	83	15.4	0	0	---	0.00	30.249 
02:10	19.4	19.4	19.4	83	15.1	0	0	---	0.00	30.249 
02:15	19.4	19.4	19.4	84	15.4	0	0	---	0.00	30.251 
02:20	19.4	19.4	19.4	84	15.4	0	0	---	0.00	30.251 
02:25	19.2	19.2	19.2	84	15.2	0	0	---	0.00	30.251 
02:30	19.2	19.2	19.2	84	15.2	0	0	---	0.00	30.250 
02:35	19.1	19.1	19.1	84	15.1	0	0	---	0.00	30.250 
02:40	18.9	18.9	18.9	85	15.2	0	0	---	0.00	30.250 
02:45	18.9	18.9	18.9	85	15.2	0	0	---	0.00	30.255 
02:50	18.8	18.8	18.8	85	15.1	0	0	---	0.00	30.255 
02:55	18.8	18.8	18.8	85	15.1	0	0	---	0.00	30.255 
03:00	18.6	18.6	18.6	85	14.9	0	0	---	0.00	30.255 
03:05	18.6	18.6	18.6	85	14.9	0	0	---	0.00	30.255 
03:10	18.6	18.6	18.6	85	14.9	0	0	---	0.00	30.255 
03:15	18.4	18.4	18.4	85	14.7	0	0	---	0.00	30.254 
03:20	18.3	18.3	18.3	86	14.8	0	0	---	0.00	30.254 
03:25	18.1	18.1	18.1	86	14.6	0	0	---	0.00	30.254 
03:30	18.1	18.1	18.1	86	14.6	0	0	---	0.00	30.261 
03:35	18.1	18.1	18.1	86	14.6	0	0	---	0.00	30.261 
03:40	18.1	18.1	18.1	86	14.6	0	0	---	0.00	30.261 
03:45	18.0	18.0	18.0	86	14.5	0	0	---	0.00	30.257 
03:50	18.0	18.0	18.0	86	14.5	0	0	---	0.00	30.257 
03:55	17.8	17.8	17.8	86	14.3	0	0	---	0.00	30.257 
04:00	17.8	17.8	17.8	87	14.6	0	0	---	0.00	30.262 
04:05	17.8	17.8	17.8	87	14.6	0	0	---	0.00	30.262 
04:10	17.8	17.8	17.8	87	14.6	0	0	---	0.00	30.262 
04:15	17.8	17.8	17.8	87	14.6	0	0	---	0.00	30.271 
04:20	17.7	17.7	17.7	87	14.5	0	0	---	0.00	30.271 
04:25	17.7	17.7	17.7	87	14.5	0	0	---	0.00	30.271 
04:30	17.5	17.5	17.5	87	14.3	0	0	---	0.00	30.273 
04:35	17.5	17.5	17.5	87	14.3	0	0	---	0.00	30.273 
04:40	17.7	17.7	17.7	87	14.5	0	0	---	0.00	30.273 
04:45	17.7	17.7	17.7	87	14.5	0	0	---	0.00	30.285 
04:50	17.7	17.7	17.7	87	14.5	0	0	---	0.00	30.285 
04:55	17.7	17.7	17.7	87	14.5	0	0	---	0.00	30.285 
05:00	17.5	17.5	17.5	87	14.3	0	0	---	0.00	30.276 
05:05	17.3	17.3	17.3	87	14.1	0	0	---	0.00	30.276 
05:10	17.3	17.3	17.3	87	14.1	0	0	---	0.00	30.276 
05:15	17.2	17.2	17.2	87	14.0	0	0	---	0.00	30.287 
05:20	17.2	17.2	17.2	87	14.0	0	0	---	0.00	30.287 
05:25	17.2	17.2	17.2	87	14.0	0	0	---	0.00	30.287 
05:30	17.0	17.0	17.0	88	14.1	0	0	---	0.00	30.290 
05:35	17.0	17.0	17.0	87	13.8	0	0	---	0.00	30.290 
05:40	16.9	16.9	16.9	88	14.0	0	0	---	0.00	30.290 
05:45	16.9	16.9	16.9	88	14.0	0	0	---	0.00	30.292 
05:50	16.9	16.9	16.9	88	14.0	0	0	---	0.00	30.292 
05:55	16.9	16.9	16.9	88	14.0	0	0	---	0.00	30.292 
06:00	16.9	16.9	16.9	88	14.0	0	0	---	0.00	30.306 
06:05	17.0	17.0	17.0	88	14.1	0	0	---	0.00	30.306 
06:10	17.0	17.0	17.0	88	14.1	0	0	---	0.00	30.306 
06:15	16.9	16.9	16.9	88	14.0	0	0	---	0.00	30.314 
06:20	16.9	16.9	16.9	88	14.0	0	0	---	0.00	30.314 
06:25	16.7	16.7	16.7	88	13.8	0	0	---	0.00	30.314 
06:30	16.7	16.7	16.7	88	13.8	0	0	---	0.00	30.313 
06:35	16.5	16.5	16.5	88	13.6	0	0	---	0.00	30.313 
06:40	16.5	16.5	16.5	88	13.6	0	0	---	0.00	30.313 
06:45	16.5	16.5	16.5	88	13.6	0	0	---	0.00	30.316 
06:50	16.5	16.5	16.5	88	13.6	0	0	---	0.00	30.316 
06:55	16.5	16.5	16.5	88	13.6	0	0	---	0.00	30.316 
07:00	16.5	16.5	16.5	88	13.6	0	0	---	0.00	30.337 
07:05	16.4	16.4	16.4	88	13.5	0	0	---	0.00	30.337 
07:10	16.4	16.4	16.4	88	13.5	0	0	---	0.00	30.337 
07:15	16.4	16.4	16.4	88	13.5	0	0	---	0.00	30.356 
07:20	16.4	16.4	16.4	88	13.5	0	0	---	0.00	30.356 
07:25	16.5	16.5	16.5	88	13.6	0	0	---	0.00	30.356 
07:30	16.5	16.5	16.5	88	13.6	0	0	---	0.00	30.360 
07:35	16.7	16.7	16.7	89	14.0	0	0	---	0.00	30.360 
07:40	17.0	17.0	17.0	89	14.3	0	0	---	0.00	30.360 
07:45	17.2	17.2	17.2	89	14.5	0	0	---	0.00	30.372 
07:50	17.3	17.3	17.3	89	14.6	0	0	---	0.00	30.372 
07:55	17.3	17.3	17.3	89	14.6	0	0	---	0.00	30.372 
08:00	17.3	17.3	17.3	89	14.6	0	0	---	0.00	30.378 
08:05	17.5	17.5	17.5	89	14.8	0	0	---	0.00	30.378 
08:10	17.7	17.7	17.7	89	15.0	0	0	---	0.00	30.378 
08:15	18.0	18.0	18.0	89	15.3	0	0	---	0.00	30.391 
08:20	18.4	18.4	18.4	89	15.7	0	0	---	0.00	30.391 
08:25	18.9	18.9	18.9	90	16.5	0	0	---	0.00	30.391 
08:30	19.7	19.7	19.7	90	17.3	0	0	---	0.00	30.390 
08:35	21.0	21.0	21.0	92	19.0	0	0	---	0.00	30.390 
08:40	21.9	21.9	21.9	91	19.7	0	0	---	0.00	30.390 
08:45	22.5	22.5	22.5	91	20.3	0	1	68	0.00	30.377 
08:50	23.2	23.2	23.2	90	20.7	0	2	68	0.00	30.377 
08:55	23.8	23.8	23.8	89	21.0	0	1	68	0.00	30.377 
09:00	24.4	24.4	24.4	88	21.4	0	1	68	0.00	30.373 
09:05	25.0	25.0	25.0	88	22.0	0	2	68	0.00	30.373 
09:10	25.8	25.8	25.8	85	21.9	0	2	68	0.00	30.373 
09:15	26.6	26.6	26.6	84	22.4	0	1	68	0.00	30.370 
09:20	27.3	27.3	27.3	83	22.8	0	1	68	0.00	30.370 
09:25	28.2	28.2	28.2	79	22.5	1	2	68	0.00	30.370 
09:30	28.7	28.7	28.7	77	22.4	1	3	68	0.00	30.371 
09:35	29.1	29.1	29.1	75	22.2	1	2	68	0.00	30.371 
09:40	29.3	29.3	29.3	75	22.4	0	1	68	0.00	30.371 
09:45	29.5	29.5	29.5	73	21.9	1	5	90	0.00	30.377 
09:50	29.5	29.5	29.5	71	21.3	2	4	112	0.00	30.377 
09:55	29.8	29.8	29.8	72	21.9	1	3	90	0.00	30.377 
10:00	30.0	30.0	30.0	69	21.1	1	4	112	0.00	30.377 
10:05	30.1	30.1	30.1	70	21.5	3	5	90	0.00	30.377 
10:10	30.1	30.1	30.1	69	21.2	3	5	90	0.00	30.377 
10:15	30.3	30.3	30.3	69	21.4	2	4	90	0.00	30.369 
10:20	30.4	30.4	30.4	67	20.8	3	6	90	0.00	30.369 
10:25	30.6	30.6	30.6	67	21.0	2	5	135	0.00	30.369 
10:30	30.7	30.7	30.7	68	21.4	2	6	90	0.00	30.376 
10:35	31.0	31.0	31.0	67	21.3	2	7	90	0.00	30.376 
10:40	31.2	31.2	31.2	65	20.8	3	7	112	0.00	30.376 
10:45	31.0	31.0	31.0	66	21.0	2	6	112	0.00	30.371 
10:50	31.6	31.6	31.6	68	22.3	1	5	90	0.00	30.371 
10:55	31.9	31.9	31.9	64	21.1	3	9	90	0.00	30.371 
11:00	32.1	32.1	32.1	63	20.9	3	7	90	0.00	30.372 
11:05	32.1	32.1	32.1	64	21.3	2	6	68	0.00	30.372 
11:10	32.5	32.5	32.5	63	21.3	2	6	68	0.00	30.372 
11:15	32.7	32.7	32.7	62	21.1	3	10	90	0.00	30.371 
11:20	32.7	32.7	32.7	62	21.1	3	7	90	0.00	30.371 
11:25	32.8	32.8	32.8	62	21.2	3	9	112	0.00	30.371 
11:30	32.9	32.9	32.9	62	21.3	3	7	90	0.00	30.369 
11:35	33.1	33.1	33.1	62	21.5	3	9	112	0.00	30.369 
11:40	32.9	29.1	32.9	64	22.1	4	10	112	0.00	30.369 
11:45	32.8	29.0	32.8	62	21.2	4	7	112	0.00	30.362 
11:50	32.9	32.9	32.9	64	22.1	3	9	90	0.00	30.362 
11:55	33.2	29.5	33.2	64	22.4	4	10	90	0.00	30.362 
12:00	33.4	28.7	33.4	63	22.2	5	9	112	0.00	30.353 
12:05	33.4	29.7	33.4	64	22.6	4	10	90	0.00	30.353 
12:10	33.5	28.8	33.5	63	22.3	5	10	90	0.00	30.353 
12:15	33.4	29.7	33.4	64	22.6	4	9	90	0.00	30.353 
12:20	33.5	29.8	33.5	64	22.6	4	8	90	0.00	30.353 
12:25	34.0	34.0	34.0	63	22.7	3	10	90	0.00	30.353 
12:30	34.0	30.4	34.0	63	22.7	4	12	90	0.00	30.343 
12:35	34.1	34.1	34.1	62	22.5	3	12	90	0.00	30.343 
12:40	34.3	34.3	34.3	62	22.7	3	7	112	0.00	30.343 
12:45	34.3	29.8	34.3	61	22.3	5	12	90	0.00	30.337 
12:50	34.3	30.7	34.3	61	22.3	4	10	90	0.00	30.337 
12:55	34.4	30.8	34.4	62	22.7	4	8	90	0.00	30.337 
13:00	34.4	29.9	34.4	62	22.7	5	15	112	0.00	30.322 
13:05	34.4	34.4	34.4	62	22.7	3	11	90	0.00	30.322 
13:10	34.7	31.2	34.7	61	22.6	4	9	112	0.00	30.322 
13:15	34.9	30.5	34.9	61	22.8	5	10	112	0.00	30.317 
13:20	34.6	30.1	34.6	60	22.2	5	11	90	0.00	30.317 
13:25	34.7	30.2	34.7	62	23.0	5	10	112	0.00	30.317 
13:30	34.9	34.9	34.9	61	22.8	3	7	90	0.00	30.317 
13:35	34.7	30.2	34.7	61	22.6	5	12	112	0.00	30.317 
13:40	34.9	31.4	34.9	62	23.2	4	11	90	0.00	30.317 
13:45	35.3	31.9	35.3	62	23.6	4	9	90	0.00	30.317 
13:50	35.3	31.9	35.3	60	22.8	4	9	90	0.00	30.317 
13:55	35.5	32.1	35.5	61	23.4	4	9	90	0.00	30.317 
14:00	35.3	31.9	35.3	60	22.8	4	9	90	0.00	30.306 
14:05	35.5	32.1	35.5	59	22.6	4	9	112	0.00	30.306 
14:10	35.8	35.8	35.8	61	23.7	3	7	90	0.00	30.306 
14:15	35.9	31.7	35.9	59	23.0	5	11	90	0.00	30.301 
14:20	35.9	32.6	35.9	60	23.4	4	10	90	0.00	30.301 
14:25	36.2	32.9	36.2	58	22.9	4	8	90	0.00	30.301 
14:30	36.3	36.3	36.3	58	23.0	3	6	112	0.00	30.305 
14:35	36.2	36.2	36.2	60	23.7	2	6	112	0.00	30.305 
14:40	36.5	33.3	36.5	57	22.7	4	10	90	0.00	30.305 
14:45	36.5	33.3	36.5	57	22.7	4	7	112	0.00	30.302 
14:50	36.6	36.6	36.6	58	23.2	2	7	90	0.00	30.302 
14:55	36.9	36.9	36.9	58	23.5	1	3	90	0.00	30.302 
15:00	37.0	37.0	37.0	57	23.2	1	4	90	0.00	30.299 
15:05	37.0	37.0	37.0	56	22.8	2	6	90	0.00	30.299 
15:10	37.0	37.0	37.0	54	21.9	3	10	90	0.00	30.299 
15:15	36.8	33.6	36.8	57	23.0	4	9	90	0.00	30.300 
15:20	36.8	33.6	36.8	57	23.0	4	7	90	0.00	30.300 
15:25	36.9	36.9	36.9	57	23.1	3	6	90	0.00	30.300 
15:30	37.2	37.2	37.2	57	23.4	2	7	90	0.00	30.295 
15:35	37.3	37.3	37.3	56	23.1	2	6	90	0.00	30.295 
15:40	37.3	37.3	37.3	57	23.5	3	9	90	0.00	30.295 
15:45	37.2	37.2	37.2	57	23.4	3	8	90	0.00	30.289 
15:50	37.3	37.3	37.3	56	23.1	3	5	90	0.00	30.289 
15:55	37.3	37.3	37.3	55	22.6	1	4	68	0.00	30.289 
16:00	37.3	37.3	37.3	56	23.1	2	7	112	0.00	30.275 
16:05	37.3	37.3	37.3	56	23.1	3	9	90	0.00	30.275 
16:10	37.6	34.5	37.6	54	22.5	4	9	90	0.00	30.275 
16:15	37.5	34.4	37.5	54	22.4	4	11	112	0.00	30.268 
16:20	37.5	37.5	37.5	54	22.4	3	9	90	0.00	30.268 
16:25	37.5	37.5	37.5	54	22.4	3	7	112	0.00	30.268 
16:30	37.3	37.3	37.3	54	22.2	3	7	112	0.00	30.260 
16:35	37.3	34.2	37.3	55	22.6	4	7	90	0.00	30.260 
16:40	37.2	37.2	37.2	55	22.5	3	10	112	0.00	30.260 
16:45	37.0	37.0	37.0	56	22.8	3	9	112	0.00	30.259 
16:50	37.0	37.0	37.0	56	22.8	1	3	112	0.00	30.259 
16:55	37.2	37.2	37.2	56	23.0	3	6	90	0.00	30.259 
17:00	37.3	37.3	37.3	55	22.6	3	5	90	0.00	30.250 
17:05	37.3	37.3	37.3	55	22.6	3	8	112	0.00	30.250 
17:10	37.2	37.2	37.2	56	23.0	2	5	112	0.00	30.250 
17:15	37.0	37.0	37.0	56	22.8	3	7	112	0.00	30.244 
17:20	36.9	36.9	36.9	56	22.7	3	9	90	0.00	30.244 
17:25	36.8	36.8	36.8	57	23.0	2	4	112	0.00	30.244 
17:30	36.6	36.6	36.6	58	23.2	2	4	90	0.00	30.239 
17:35	36.5	36.5	36.5	58	23.1	3	7	90	0.00	30.239 
17:40	36.3	36.3	36.3	58	23.0	2	6	90	0.00	30.239 
17:45	36.2	36.2	36.2	58	22.9	1	4	90	0.00	30.240 
17:50	36.0	36.0	36.0	58	22.7	2	4	112	0.00	30.240 
17:55	35.9	35.9	35.9	58	22.6	1	4	112	0.00	30.240 
18:00	35.8	35.8	35.8	59	22.9	1	4	112	0.00	30.235 
18:05	35.6	35.6	35.6	59	22.7	2	4	112	0.00	30.235 
18:10	35.5	35.5	35.5	60	23.0	1	3	112	0.00	30.235 
18:15	35.3	35.3	35.3	60	22.8	1	3	112	0.00	30.236 
18:20	35.2	35.2	35.2	61	23.1	1	3	112	0.00	30.236 
18:25	35.0	35.0	35.0	61	22.9	1	2	112	0.00	30.236 
18:30	34.7	34.7	34.7	62	23.0	0	1	112	0.00	30.241 
18:35	34.6	34.6	34.6	62	22.9	0	2	112	0.00	30.241 
18:40	34.3	34.3	34.3	63	23.0	0	2	112	0.00	30.241 
18:45	34.0	34.0	34.0	64	23.1	0	2	112	0.00	30.239 
18:50	33.8	33.8	33.8	64	22.9	1	3	112	0.00	30.239 
18:55	33.8	33.8	33.8	64	22.9	1	3	112	0.00	30.239 
19:00	33.8	33.8	33.8	65	23.3	1	2	112	0.00	30.230 
19:05	33.8	33.8	33.8	65	23.3	1	3	112	0.00	30.230 
19:10	33.7	33.7	33.7	65	23.2	1	3	112	0.00	30.230 
19:15	33.5	33.5	33.5	65	23.0	1	3	112	0.00	30.225 
19:20	33.5	33.5	33.5	66	23.4	1	3	112	0.00	30.225 
19:25	33.4	33.4	33.4	66	23.3	2	4	112	0.00	30.225 
19:30	33.4	33.4	33.4	66	23.3	2	4	90	0.00	30.211 
19:35	33.4	33.4	33.4	66	23.3	2	4	90	0.00	30.211 
19:40	33.2	33.2	33.2	67	23.4	1	4	68	0.00	30.211 
19:45	33.2	33.2	33.2	66	23.1	2	5	90	0.00	30.202 
19:50	33.2	33.2	33.2	67	23.4	1	4	90	0.00	30.202 
19:55	33.1	33.1	33.1	67	23.4	1	3	90	0.00	30.202 
20:00	33.1	33.1	33.1	68	23.7	2	4	90	0.00	30.196 
20:05	33.1	33.1	33.1	68	23.7	2	4	90	0.00	30.196 
20:10	32.9	32.9	32.9	68	23.5	1	4	90	0.00	30.196 
20:15	32.8	32.8	32.8	69	23.8	1	3	90	0.00	30.187 
20:20	32.7	32.7	32.7	69	23.7	1	4	90	0.00	30.187 
20:25	32.5	32.5	32.5	70	23.8	1	3	90	0.00	30.187 
20:30	32.5	32.5	32.5	70	23.8	1	3	90	0.00	30.187 
20:35	32.5	32.5	32.5	70	23.8	1	3	90	0.00	30.187 
20:40	32.5	32.5	32.5	70	23.8	2	4	90	0.00	30.187 
20:45	32.5	32.5	32.5	71	24.2	2	4	90	0.00	30.186 
20:50	32.5	32.5	32.5	71	24.2	2	4	90	0.00	30.186 
20:55	32.5	32.5	32.5	71	24.2	3	4	90	0.00	30.186 
21:00	32.4	32.4	32.4	71	24.1	2	4	90	0.00	30.181 
21:05	32.4	32.4	32.4	72	24.4	2	4	90	0.00	30.181 
21:10	32.2	32.2	32.2	72	24.2	2	4	90	0.00	30.181 
21:15	32.1	32.1	32.1	73	24.4	1	3	90	0.00	30.168 
21:20	31.9	31.9	31.9	73	24.2	1	2	90	0.00	30.168 
21:25	31.9	31.9	31.9	73	24.2	1	2	90	0.00	30.168 
21:30	31.8	31.8	31.8	74	24.5	1	2	90	0.00	30.167 
21:35	31.8	31.8	31.8	74	24.5	1	3	90	0.00	30.167 
21:40	31.6	31.6	31.6	74	24.3	1	4	90	0.00	30.167 
21:45	31.6	31.6	31.6	74	24.3	2	3	90	0.00	30.151 
21:50	31.6	31.6	31.6	75	24.6	1	3	90	0.00	30.151 
21:55	31.6	31.6	31.6	75	24.6	2	4	90	0.00	30.151 
22:00	31.6	31.6	31.6	75	24.6	1	3	90	0.00	30.145 
22:05	31.6	31.6	31.6	74	24.3	1	3	90	0.00	30.145 
22:10	31.8	31.8	31.8	74	24.5	1	4	90	0.00	30.145 
22:15	31.8	31.8	31.8	74	24.5	1	3	90	0.00	30.141 
22:20	31.8	31.8	31.8	73	24.1	1	2	90	0.00	30.141 
22:25	31.9	31.9	31.9	73	24.2	1	4	90	0.00	30.141 
22:30	32.1	32.1	32.1	72	24.1	1	4	90	0.00	30.133 
22:35	32.4	32.4	32.4	72	24.4	1	4	90	0.00	30.133 
22:40	32.4	32.4	32.4	72	24.4	1	4	90	0.00	30.133 
22:45	32.5	32.5	32.5	71	24.2	2	4	90	0.00	30.119 
22:50	32.5	32.5	32.5	71	24.2	2	4	90	0.00	30.119 
22:55	32.5	32.5	32.5	71	24.2	2	4	90	0.00	30.119 
23:00	32.5	32.5	32.5	71	24.2	1	5	112	0.00	30.119 
23:05	32.5	32.5	32.5	71	24.2	2	6	90	0.00	30.119 
23:10	32.4	32.4	32.4	72	24.4	2	3	90	0.00	30.119 
23:15	32.4	32.4	32.4	72	24.4	2	5	90	0.00	30.106 
23:20	32.4	32.4	32.4	72	24.4	1	4	90	0.00	30.106 
23:25	32.4	32.4	32.4	72	24.4	1	3	90	0.00	30.106 
23:30	32.4	32.4	32.4	72	24.4	2	4	112	0.00	30.103 
23:35	32.4	32.4	32.4	72	24.4	1	4	112	0.00	30.103 
23:40	32.2	32.2	32.2	72	24.2	1	2	112	0.00	30.103 
23:45	32.1	32.1	32.1	73	24.4	1	3	112	0.00	30.102 
23:50	31.8	31.8	31.8	73	24.1	0	1	112	0.00	30.102 
23:55	31.5	31.5	31.5	74	24.2	0	2	112	0.00	30.102 

CoCoRaHS
IN-AL-39
A2 Web Hosting
Creative Commons License
GoDaddy
search engine by freefind advanced

loaded 2018-11-17 06:06:10 • last modified 2010-11-18 10:43:29
Privacy PolicyDisclaimer
• wx.awcolley.com is powered by PmWiki v.2002016 •
• all content (unless otherwise noted) © 2018 A W Colley